sensor_id;sensor_type;location;lat;lon;timestamp;P1;durP1;ratioP1;P2;durP2;ratioP2
20865;SDS011;10593;48.398;10.698;2022-10-22T00:00:22;2.70;;;2.17;;
20865;SDS011;10593;48.398;10.698;2022-10-22T00:02:48;3.67;;;2.40;;
20865;SDS011;10593;48.398;10.698;2022-10-22T00:05:14;2.67;;;2.47;;
20865;SDS011;10593;48.398;10.698;2022-10-22T00:07:39;3.23;;;2.40;;
20865;SDS011;10593;48.398;10.698;2022-10-22T00:10:06;2.67;;;2.33;;
20865;SDS011;10593;48.398;10.698;2022-10-22T00:12:32;2.30;;;2.03;;
20865;SDS011;10593;48.398;10.698;2022-10-22T00:14:58;2.70;;;2.00;;
20865;SDS011;10593;48.398;10.698;2022-10-22T00:17:24;2.10;;;2.00;;
20865;SDS011;10593;48.398;10.698;2022-10-22T00:19:50;2.40;;;2.20;;
20865;SDS011;10593;48.398;10.698;2022-10-22T00:22:16;2.00;;;1.80;;
20865;SDS011;10593;48.398;10.698;2022-10-22T00:24:41;3.17;;;1.90;;
20865;SDS011;10593;48.398;10.698;2022-10-22T00:27:08;2.13;;;1.83;;
20865;SDS011;10593;48.398;10.698;2022-10-22T00:29:36;2.27;;;1.70;;
20865;SDS011;10593;48.398;10.698;2022-10-22T00:32:02;2.53;;;1.53;;
20865;SDS011;10593;48.398;10.698;2022-10-22T00:34:28;1.90;;;1.80;;
20865;SDS011;10593;48.398;10.698;2022-10-22T00:36:54;2.17;;;1.50;;
20865;SDS011;10593;48.398;10.698;2022-10-22T00:39:21;4.03;;;1.90;;
20865;SDS011;10593;48.398;10.698;2022-10-22T00:41:49;1.77;;;1.53;;
20865;SDS011;10593;48.398;10.698;2022-10-22T00:50:32;2.00;;;1.67;;
20865;SDS011;10593;48.398;10.698;2022-10-22T00:53:05;1.90;;;1.63;;
20865;SDS011;10593;48.398;10.698;2022-10-22T00:55:38;1.60;;;1.50;;
20865;SDS011;10593;48.398;10.698;2022-10-22T00:58:07;2.17;;;1.70;;
20865;SDS011;10593;48.398;10.698;2022-10-22T01:00:34;1.70;;;1.60;;
20865;SDS011;10593;48.398;10.698;2022-10-22T01:03:00;1.90;;;1.80;;
20865;SDS011;10593;48.398;10.698;2022-10-22T01:05:26;1.80;;;1.70;;
20865;SDS011;10593;48.398;10.698;2022-10-22T01:08:01;1.87;;;1.70;;
20865;SDS011;10593;48.398;10.698;2022-10-22T01:13:29;1.70;;;1.60;;
20865;SDS011;10593;48.398;10.698;2022-10-22T01:16:29;1.80;;;1.70;;
20865;SDS011;10593;48.398;10.698;2022-10-22T01:22:29;2.00;;;1.80;;
20865;SDS011;10593;48.398;10.698;2022-10-22T01:25:33;2.33;;;1.83;;
20865;SDS011;10593;48.398;10.698;2022-10-22T01:28:12;2.70;;;1.90;;
20865;SDS011;10593;48.398;10.698;2022-10-22T01:31:16;1.83;;;1.73;;
20865;SDS011;10593;48.398;10.698;2022-10-22T01:33:45;2.03;;;1.70;;
20865;SDS011;10593;48.398;10.698;2022-10-22T01:36:15;2.30;;;2.03;;
20865;SDS011;10593;48.398;10.698;2022-10-22T01:38:43;2.30;;;2.10;;
20865;SDS011;10593;48.398;10.698;2022-10-22T01:41:10;1.70;;;1.60;;
20865;SDS011;10593;48.398;10.698;2022-10-22T01:43:36;2.00;;;1.90;;
20865;SDS011;10593;48.398;10.698;2022-10-22T01:46:03;2.20;;;2.03;;
20865;SDS011;10593;48.398;10.698;2022-10-22T01:51:26;1.90;;;1.80;;
20865;SDS011;10593;48.398;10.698;2022-10-22T01:54:23;2.27;;;1.67;;
20865;SDS011;10593;48.398;10.698;2022-10-22T01:57:15;1.50;;;1.40;;
20865;SDS011;10593;48.398;10.698;2022-10-22T02:00:00;1.50;;;1.40;;
20865;SDS011;10593;48.398;10.698;2022-10-22T02:07:56;1.40;;;1.10;;
20865;SDS011;10593;48.398;10.698;2022-10-22T02:10:33;1.33;;;1.23;;
20865;SDS011;10593;48.398;10.698;2022-10-22T02:13:03;1.00;;;1.00;;
20865;SDS011;10593;48.398;10.698;2022-10-22T02:15:42;1.00;;;1.00;;
20865;SDS011;10593;48.398;10.698;2022-10-22T02:18:10;1.00;;;1.00;;
20865;SDS011;10593;48.398;10.698;2022-10-22T02:20:37;0.87;;;0.87;;
20865;SDS011;10593;48.398;10.698;2022-10-22T02:23:06;0.90;;;0.80;;
20865;SDS011;10593;48.398;10.698;2022-10-22T02:25:34;1.10;;;1.00;;
20865;SDS011;10593;48.398;10.698;2022-10-22T02:28:10;1.30;;;1.20;;
20865;SDS011;10593;48.398;10.698;2022-10-22T02:30:45;1.70;;;1.00;;
20865;SDS011;10593;48.398;10.698;2022-10-22T02:33:20;0.90;;;0.90;;
20865;SDS011;10593;48.398;10.698;2022-10-22T02:35:52;0.90;;;0.90;;
20865;SDS011;10593;48.398;10.698;2022-10-22T02:38:19;0.83;;;0.83;;
20865;SDS011;10593;48.398;10.698;2022-10-22T02:40:49;0.80;;;0.80;;
20865;SDS011;10593;48.398;10.698;2022-10-22T02:43:16;1.80;;;1.20;;
20865;SDS011;10593;48.398;10.698;2022-10-22T02:45:43;2.47;;;1.00;;
20865;SDS011;10593;48.398;10.698;2022-10-22T02:48:10;2.20;;;1.17;;
20865;SDS011;10593;48.398;10.698;2022-10-22T02:50:35;1.43;;;1.10;;
20865;SDS011;10593;48.398;10.698;2022-10-22T02:53:01;1.00;;;1.00;;
20865;SDS011;10593;48.398;10.698;2022-10-22T02:55:27;2.63;;;1.30;;
20865;SDS011;10593;48.398;10.698;2022-10-22T02:57:53;1.80;;;1.53;;
20865;SDS011;10593;48.398;10.698;2022-10-22T03:00:19;1.87;;;1.20;;
20865;SDS011;10593;48.398;10.698;2022-10-22T03:02:45;1.43;;;1.37;;
20865;SDS011;10593;48.398;10.698;2022-10-22T03:05:11;1.67;;;1.30;;
20865;SDS011;10593;48.398;10.698;2022-10-22T03:07:37;2.40;;;1.30;;
20865;SDS011;10593;48.398;10.698;2022-10-22T03:10:03;1.40;;;1.30;;
20865;SDS011;10593;48.398;10.698;2022-10-22T03:12:29;1.43;;;1.33;;
20865;SDS011;10593;48.398;10.698;2022-10-22T03:14:55;3.47;;;1.47;;
20865;SDS011;10593;48.398;10.698;2022-10-22T03:17:21;1.40;;;1.30;;
20865;SDS011;10593;48.398;10.698;2022-10-22T03:19:46;1.60;;;1.40;;
20865;SDS011;10593;48.398;10.698;2022-10-22T03:22:14;1.10;;;1.10;;
20865;SDS011;10593;48.398;10.698;2022-10-22T03:24:47;1.03;;;1.03;;
20865;SDS011;10593;48.398;10.698;2022-10-22T03:27:19;1.43;;;1.10;;
20865;SDS011;10593;48.398;10.698;2022-10-22T03:29:47;1.00;;;1.00;;
20865;SDS011;10593;48.398;10.698;2022-10-22T03:32:16;0.80;;;0.77;;
20865;SDS011;10593;48.398;10.698;2022-10-22T03:34:41;1.17;;;1.00;;
20865;SDS011;10593;48.398;10.698;2022-10-22T03:37:07;1.97;;;0.87;;
20865;SDS011;10593;48.398;10.698;2022-10-22T03:39:33;2.37;;;1.00;;
20865;SDS011;10593;48.398;10.698;2022-10-22T03:42:01;0.80;;;0.70;;
20865;SDS011;10593;48.398;10.698;2022-10-22T03:44:29;1.10;;;1.10;;
20865;SDS011;10593;48.398;10.698;2022-10-22T03:46:56;2.10;;;1.00;;
20865;SDS011;10593;48.398;10.698;2022-10-22T03:49:21;1.60;;;1.00;;
20865;SDS011;10593;48.398;10.698;2022-10-22T03:51:47;2.73;;;1.30;;
20865;SDS011;10593;48.398;10.698;2022-10-22T03:54:14;2.37;;;2.17;;
20865;SDS011;10593;48.398;10.698;2022-10-22T03:56:40;2.10;;;1.90;;
20865;SDS011;10593;48.398;10.698;2022-10-22T03:59:06;5.80;;;2.10;;
20865;SDS011;10593;48.398;10.698;2022-10-22T04:01:31;1.53;;;1.43;;
20865;SDS011;10593;48.398;10.698;2022-10-22T04:03:57;1.33;;;1.23;;
20865;SDS011;10593;48.398;10.698;2022-10-22T04:06:23;1.37;;;0.90;;
20865;SDS011;10593;48.398;10.698;2022-10-22T04:08:49;1.87;;;0.90;;
20865;SDS011;10593;48.398;10.698;2022-10-22T04:11:15;0.77;;;0.77;;
20865;SDS011;10593;48.398;10.698;2022-10-22T04:13:41;0.73;;;0.73;;
20865;SDS011;10593;48.398;10.698;2022-10-22T04:16:12;0.60;;;0.60;;
20865;SDS011;10593;48.398;10.698;2022-10-22T04:18:40;0.73;;;0.40;;
20865;SDS011;10593;48.398;10.698;2022-10-22T04:21:09;0.50;;;0.50;;
20865;SDS011;10593;48.398;10.698;2022-10-22T04:23:36;1.10;;;0.60;;
20865;SDS011;10593;48.398;10.698;2022-10-22T04:26:04;0.70;;;0.70;;
20865;SDS011;10593;48.398;10.698;2022-10-22T04:28:32;1.17;;;0.70;;
20865;SDS011;10593;48.398;10.698;2022-10-22T04:30:58;0.60;;;0.60;;
20865;SDS011;10593;48.398;10.698;2022-10-22T04:33:24;1.07;;;0.57;;
20865;SDS011;10593;48.398;10.698;2022-10-22T04:35:50;1.20;;;0.73;;
20865;SDS011;10593;48.398;10.698;2022-10-22T04:38:16;0.90;;;0.90;;
20865;SDS011;10593;48.398;10.698;2022-10-22T04:40:42;1.40;;;0.83;;
20865;SDS011;10593;48.398;10.698;2022-10-22T04:43:08;1.47;;;0.97;;
20865;SDS011;10593;48.398;10.698;2022-10-22T04:45:34;1.50;;;0.80;;
20865;SDS011;10593;48.398;10.698;2022-10-22T04:48:00;1.33;;;0.93;;
20865;SDS011;10593;48.398;10.698;2022-10-22T04:50:26;0.80;;;0.80;;
20865;SDS011;10593;48.398;10.698;2022-10-22T04:52:52;0.80;;;0.80;;
20865;SDS011;10593;48.398;10.698;2022-10-22T04:55:17;0.43;;;0.43;;
20865;SDS011;10593;48.398;10.698;2022-10-22T04:57:43;0.50;;;0.50;;
20865;SDS011;10593;48.398;10.698;2022-10-22T05:00:09;0.47;;;0.40;;
20865;SDS011;10593;48.398;10.698;2022-10-22T05:02:35;0.50;;;0.50;;
20865;SDS011;10593;48.398;10.698;2022-10-22T05:05:01;0.80;;;0.47;;
20865;SDS011;10593;48.398;10.698;2022-10-22T05:07:27;1.57;;;0.70;;
20865;SDS011;10593;48.398;10.698;2022-10-22T05:09:53;0.80;;;0.67;;
20865;SDS011;10593;48.398;10.698;2022-10-22T05:12:19;6.97;;;0.70;;
20865;SDS011;10593;48.398;10.698;2022-10-22T05:14:44;0.30;;;0.30;;
20865;SDS011;10593;48.398;10.698;2022-10-22T05:17:10;0.50;;;0.50;;
20865;SDS011;10593;48.398;10.698;2022-10-22T05:19:36;0.70;;;0.57;;
20865;SDS011;10593;48.398;10.698;2022-10-22T05:22:02;0.63;;;0.30;;
20865;SDS011;10593;48.398;10.698;2022-10-22T05:24:29;0.73;;;0.43;;
20865;SDS011;10593;48.398;10.698;2022-10-22T05:26:57;0.50;;;0.40;;
20865;SDS011;10593;48.398;10.698;2022-10-22T05:29:24;0.57;;;0.37;;
20865;SDS011;10593;48.398;10.698;2022-10-22T05:31:50;0.67;;;0.37;;
20865;SDS011;10593;48.398;10.698;2022-10-22T05:34:17;1.60;;;0.40;;
20865;SDS011;10593;48.398;10.698;2022-10-22T05:36:44;0.40;;;0.40;;
20865;SDS011;10593;48.398;10.698;2022-10-22T05:39:10;1.17;;;0.43;;
20865;SDS011;10593;48.398;10.698;2022-10-22T05:41:36;1.50;;;0.87;;
20865;SDS011;10593;48.398;10.698;2022-10-22T05:44:03;0.57;;;0.57;;
20865;SDS011;10593;48.398;10.698;2022-10-22T05:46:31;0.40;;;0.40;;
20865;SDS011;10593;48.398;10.698;2022-10-22T05:49:00;0.60;;;0.60;;
20865;SDS011;10593;48.398;10.698;2022-10-22T05:51:30;1.47;;;0.90;;
20865;SDS011;10593;48.398;10.698;2022-10-22T05:53:59;1.30;;;0.80;;
20865;SDS011;10593;48.398;10.698;2022-10-22T05:56:27;0.77;;;0.77;;
20865;SDS011;10593;48.398;10.698;2022-10-22T05:58:56;0.70;;;0.70;;
20865;SDS011;10593;48.398;10.698;2022-10-22T06:01:22;5.10;;;0.83;;
20865;SDS011;10593;48.398;10.698;2022-10-22T06:03:54;0.70;;;0.70;;
20865;SDS011;10593;48.398;10.698;2022-10-22T06:06:26;1.17;;;1.07;;
20865;SDS011;10593;48.398;10.698;2022-10-22T06:09:24;2.80;;;1.30;;
20865;SDS011;10593;48.398;10.698;2022-10-22T06:11:52;1.30;;;1.17;;
20865;SDS011;10593;48.398;10.698;2022-10-22T06:14:19;1.20;;;1.10;;
20865;SDS011;10593;48.398;10.698;2022-10-22T06:16:46;0.70;;;0.70;;
20865;SDS011;10593;48.398;10.698;2022-10-22T06:19:13;0.60;;;0.60;;
20865;SDS011;10593;48.398;10.698;2022-10-22T06:21:41;0.90;;;0.73;;
20865;SDS011;10593;48.398;10.698;2022-10-22T06:24:08;2.20;;;1.00;;
20865;SDS011;10593;48.398;10.698;2022-10-22T06:26:34;0.53;;;0.53;;
20865;SDS011;10593;48.398;10.698;2022-10-22T06:29:00;0.67;;;0.67;;
20865;SDS011;10593;48.398;10.698;2022-10-22T06:31:26;0.53;;;0.53;;
20865;SDS011;10593;48.398;10.698;2022-10-22T06:33:53;0.50;;;0.50;;
20865;SDS011;10593;48.398;10.698;2022-10-22T06:36:21;2.13;;;0.80;;
20865;SDS011;10593;48.398;10.698;2022-10-22T06:38:52;0.60;;;0.60;;
20865;SDS011;10593;48.398;10.698;2022-10-22T06:41:19;0.83;;;0.80;;
20865;SDS011;10593;48.398;10.698;2022-10-22T06:43:46;0.57;;;0.57;;
20865;SDS011;10593;48.398;10.698;2022-10-22T06:46:16;0.90;;;0.90;;
20865;SDS011;10593;48.398;10.698;2022-10-22T06:48:49;2.07;;;1.57;;
20865;SDS011;10593;48.398;10.698;2022-10-22T06:51:23;2.30;;;2.00;;
20865;SDS011;10593;48.398;10.698;2022-10-22T06:53:50;4.07;;;3.40;;
20865;SDS011;10593;48.398;10.698;2022-10-22T06:56:17;4.83;;;3.80;;
20865;SDS011;10593;48.398;10.698;2022-10-22T06:58:46;4.37;;;3.87;;
20865;SDS011;10593;48.398;10.698;2022-10-22T07:01:14;3.13;;;2.80;;
20865;SDS011;10593;48.398;10.698;2022-10-22T07:03:42;2.80;;;2.50;;
20865;SDS011;10593;48.398;10.698;2022-10-22T07:06:08;2.73;;;1.77;;
20865;SDS011;10593;48.398;10.698;2022-10-22T07:08:36;2.20;;;1.93;;
20865;SDS011;10593;48.398;10.698;2022-10-22T07:11:04;2.60;;;2.40;;
20865;SDS011;10593;48.398;10.698;2022-10-22T07:13:31;3.10;;;2.80;;
20865;SDS011;10593;48.398;10.698;2022-10-22T07:15:57;2.93;;;2.70;;
20865;SDS011;10593;48.398;10.698;2022-10-22T07:18:23;2.73;;;2.53;;
20865;SDS011;10593;48.398;10.698;2022-10-22T07:20:49;3.13;;;2.90;;
20865;SDS011;10593;48.398;10.698;2022-10-22T07:23:15;3.03;;;2.23;;
20865;SDS011;10593;48.398;10.698;2022-10-22T07:25:42;2.20;;;2.00;;
20865;SDS011;10593;48.398;10.698;2022-10-22T07:28:08;1.67;;;1.57;;
20865;SDS011;10593;48.398;10.698;2022-10-22T07:30:34;1.80;;;1.70;;
20865;SDS011;10593;48.398;10.698;2022-10-22T07:33:02;1.47;;;1.37;;
20865;SDS011;10593;48.398;10.698;2022-10-22T07:35:27;1.07;;;1.03;;
20865;SDS011;10593;48.398;10.698;2022-10-22T07:37:53;1.17;;;1.17;;
20865;SDS011;10593;48.398;10.698;2022-10-22T07:40:19;2.53;;;1.27;;
20865;SDS011;10593;48.398;10.698;2022-10-22T07:42:44;1.30;;;1.30;;
20865;SDS011;10593;48.398;10.698;2022-10-22T07:45:10;0.90;;;0.90;;
20865;SDS011;10593;48.398;10.698;2022-10-22T07:47:36;0.57;;;0.57;;
20865;SDS011;10593;48.398;10.698;2022-10-22T07:50:02;0.90;;;0.90;;
20865;SDS011;10593;48.398;10.698;2022-10-22T07:52:28;1.13;;;0.90;;
20865;SDS011;10593;48.398;10.698;2022-10-22T07:54:54;1.83;;;0.90;;
20865;SDS011;10593;48.398;10.698;2022-10-22T07:57:20;1.07;;;1.07;;
20865;SDS011;10593;48.398;10.698;2022-10-22T07:59:45;12.20;;;1.83;;
20865;SDS011;10593;48.398;10.698;2022-10-22T08:02:11;1.93;;;1.70;;
20865;SDS011;10593;48.398;10.698;2022-10-22T08:04:37;1.50;;;1.17;;
20865;SDS011;10593;48.398;10.698;2022-10-22T08:07:03;4.63;;;1.50;;
20865;SDS011;10593;48.398;10.698;2022-10-22T08:09:29;1.17;;;1.07;;
20865;SDS011;10593;48.398;10.698;2022-10-22T08:11:54;2.03;;;1.40;;
20865;SDS011;10593;48.398;10.698;2022-10-22T08:14:20;1.90;;;1.70;;
20865;SDS011;10593;48.398;10.698;2022-10-22T08:16:46;1.40;;;1.30;;
20865;SDS011;10593;48.398;10.698;2022-10-22T08:19:12;2.00;;;1.70;;
20865;SDS011;10593;48.398;10.698;2022-10-22T08:21:40;2.37;;;2.20;;
20865;SDS011;10593;48.398;10.698;2022-10-22T08:24:06;6.27;;;1.80;;
20865;SDS011;10593;48.398;10.698;2022-10-22T08:26:31;1.83;;;1.63;;
20865;SDS011;10593;48.398;10.698;2022-10-22T08:28:57;1.63;;;1.00;;
20865;SDS011;10593;48.398;10.698;2022-10-22T08:31:23;1.10;;;0.90;;
20865;SDS011;10593;48.398;10.698;2022-10-22T08:33:48;0.57;;;0.57;;
20865;SDS011;10593;48.398;10.698;2022-10-22T08:36:14;0.83;;;0.60;;
20865;SDS011;10593;48.398;10.698;2022-10-22T08:38:40;3.23;;;1.00;;
20865;SDS011;10593;48.398;10.698;2022-10-22T08:41:15;1.97;;;0.57;;
20865;SDS011;10593;48.398;10.698;2022-10-22T08:44:01;0.67;;;0.67;;
20865;SDS011;10593;48.398;10.698;2022-10-22T08:50:00;0.97;;;0.97;;
20865;SDS011;10593;48.398;10.698;2022-10-22T08:52:26;1.10;;;1.00;;
20865;SDS011;10593;48.398;10.698;2022-10-22T08:54:53;2.50;;;1.53;;
20865;SDS011;10593;48.398;10.698;2022-10-22T09:00:26;1.50;;;1.17;;
20865;SDS011;10593;48.398;10.698;2022-10-22T09:08:45;2.33;;;1.20;;
20865;SDS011;10593;48.398;10.698;2022-10-22T09:13:37;1.20;;;1.10;;
20865;SDS011;10593;48.398;10.698;2022-10-22T09:18:51;1.87;;;1.73;;
20865;SDS011;10593;48.398;10.698;2022-10-22T09:21:40;2.57;;;1.77;;
20865;SDS011;10593;48.398;10.698;2022-10-22T09:24:38;1.60;;;1.50;;
20865;SDS011;10593;48.398;10.698;2022-10-22T09:27:20;1.90;;;1.37;;
20865;SDS011;10593;48.398;10.698;2022-10-22T09:29:51;1.17;;;1.17;;
20865;SDS011;10593;48.398;10.698;2022-10-22T09:32:17;1.30;;;1.20;;
20865;SDS011;10593;48.398;10.698;2022-10-22T09:34:44;1.00;;;1.00;;
20865;SDS011;10593;48.398;10.698;2022-10-22T09:37:13;1.50;;;1.40;;
20865;SDS011;10593;48.398;10.698;2022-10-22T09:39:44;1.27;;;1.10;;
20865;SDS011;10593;48.398;10.698;2022-10-22T09:42:16;0.90;;;0.90;;
20865;SDS011;10593;48.398;10.698;2022-10-22T09:44:43;0.90;;;0.90;;
20865;SDS011;10593;48.398;10.698;2022-10-22T09:47:29;1.07;;;0.90;;
20865;SDS011;10593;48.398;10.698;2022-10-22T09:53:18;1.77;;;1.40;;
20865;SDS011;10593;48.398;10.698;2022-10-22T09:55:51;1.53;;;0.87;;
20865;SDS011;10593;48.398;10.698;2022-10-22T09:58:19;0.73;;;0.73;;
20865;SDS011;10593;48.398;10.698;2022-10-22T10:00:49;1.00;;;1.00;;
20865;SDS011;10593;48.398;10.698;2022-10-22T10:03:24;1.97;;;1.77;;
20865;SDS011;10593;48.398;10.698;2022-10-22T10:05:54;3.27;;;2.73;;
20865;SDS011;10593;48.398;10.698;2022-10-22T10:08:23;2.40;;;2.07;;
20865;SDS011;10593;48.398;10.698;2022-10-22T10:10:51;2.40;;;2.20;;
20865;SDS011;10593;48.398;10.698;2022-10-22T10:13:51;1.53;;;1.23;;
20865;SDS011;10593;48.398;10.698;2022-10-22T10:16:44;1.00;;;0.90;;
20865;SDS011;10593;48.398;10.698;2022-10-22T10:22:52;1.53;;;0.90;;
20865;SDS011;10593;48.398;10.698;2022-10-22T10:25:37;0.70;;;0.70;;
20865;SDS011;10593;48.398;10.698;2022-10-22T10:31:17;2.40;;;1.23;;
20865;SDS011;10593;48.398;10.698;2022-10-22T10:34:01;0.80;;;0.80;;
20865;SDS011;10593;48.398;10.698;2022-10-22T10:37:03;0.93;;;0.80;;
20865;SDS011;10593;48.398;10.698;2022-10-22T10:40:03;0.67;;;0.67;;
20865;SDS011;10593;48.398;10.698;2022-10-22T10:42:37;1.57;;;0.57;;
20865;SDS011;10593;48.398;10.698;2022-10-22T10:45:42;0.47;;;0.47;;
20865;SDS011;10593;48.398;10.698;2022-10-22T10:48:21;0.60;;;0.60;;
20865;SDS011;10593;48.398;10.698;2022-10-22T10:57:05;0.30;;;0.30;;
20865;SDS011;10593;48.398;10.698;2022-10-22T11:06:08;0.50;;;0.50;;
20865;SDS011;10593;48.398;10.698;2022-10-22T11:08:45;0.50;;;0.50;;
20865;SDS011;10593;48.398;10.698;2022-10-22T11:11:21;0.67;;;0.67;;
20865;SDS011;10593;48.398;10.698;2022-10-22T11:17:09;0.63;;;0.60;;
20865;SDS011;10593;48.398;10.698;2022-10-22T11:22:49;0.60;;;0.60;;
20865;SDS011;10593;48.398;10.698;2022-10-22T11:25:24;0.60;;;0.60;;
20865;SDS011;10593;48.398;10.698;2022-10-22T11:27:56;0.63;;;0.63;;
20865;SDS011;10593;48.398;10.698;2022-10-22T11:30:39;0.83;;;0.40;;
20865;SDS011;10593;48.398;10.698;2022-10-22T11:33:10;0.70;;;0.70;;
20865;SDS011;10593;48.398;10.698;2022-10-22T11:35:45;1.17;;;0.73;;
20865;SDS011;10593;48.398;10.698;2022-10-22T11:38:16;0.60;;;0.60;;
20865;SDS011;10593;48.398;10.698;2022-10-22T11:40:50;1.47;;;0.50;;
20865;SDS011;10593;48.398;10.698;2022-10-22T11:43:30;0.53;;;0.50;;
20865;SDS011;10593;48.398;10.698;2022-10-22T11:48:43;0.60;;;0.60;;
20865;SDS011;10593;48.398;10.698;2022-10-22T11:51:36;0.80;;;0.80;;
20865;SDS011;10593;48.398;10.698;2022-10-22T11:59:39;0.60;;;0.60;;
20865;SDS011;10593;48.398;10.698;2022-10-22T12:10:19;0.40;;;0.40;;
20865;SDS011;10593;48.398;10.698;2022-10-22T12:13:04;0.63;;;0.60;;
20865;SDS011;10593;48.398;10.698;2022-10-22T12:15:50;0.90;;;0.70;;
20865;SDS011;10593;48.398;10.698;2022-10-22T12:18:22;1.23;;;0.80;;
20865;SDS011;10593;48.398;10.698;2022-10-22T12:20:55;1.03;;;0.50;;
20865;SDS011;10593;48.398;10.698;2022-10-22T12:23:23;0.70;;;0.70;;
20865;SDS011;10593;48.398;10.698;2022-10-22T12:25:58;0.53;;;0.53;;
20865;SDS011;10593;48.398;10.698;2022-10-22T12:28:23;0.67;;;0.60;;
20865;SDS011;10593;48.398;10.698;2022-10-22T12:30:49;0.77;;;0.77;;
20865;SDS011;10593;48.398;10.698;2022-10-22T12:33:17;1.37;;;0.93;;
20865;SDS011;10593;48.398;10.698;2022-10-22T12:35:46;0.67;;;0.67;;
20865;SDS011;10593;48.398;10.698;2022-10-22T12:38:17;1.00;;;0.90;;
20865;SDS011;10593;48.398;10.698;2022-10-22T12:40:47;1.30;;;1.10;;
20865;SDS011;10593;48.398;10.698;2022-10-22T12:43:17;1.33;;;0.97;;
20865;SDS011;10593;48.398;10.698;2022-10-22T12:45:48;1.33;;;1.03;;
20865;SDS011;10593;48.398;10.698;2022-10-22T12:50:47;1.20;;;0.60;;
20865;SDS011;10593;48.398;10.698;2022-10-22T12:53:23;1.10;;;0.80;;
20865;SDS011;10593;48.398;10.698;2022-10-22T12:55:58;1.00;;;0.60;;
20865;SDS011;10593;48.398;10.698;2022-10-22T12:58:32;1.60;;;1.10;;
20865;SDS011;10593;48.398;10.698;2022-10-22T13:01:03;0.93;;;0.90;;
20865;SDS011;10593;48.398;10.698;2022-10-22T13:03:35;0.83;;;0.83;;
20865;SDS011;10593;48.398;10.698;2022-10-22T13:08:44;1.93;;;0.80;;
20865;SDS011;10593;48.398;10.698;2022-10-22T13:11:46;1.87;;;0.80;;
20865;SDS011;10593;48.398;10.698;2022-10-22T13:22:30;1.43;;;0.70;;
20865;SDS011;10593;48.398;10.698;2022-10-22T13:28:23;0.77;;;0.77;;
20865;SDS011;10593;48.398;10.698;2022-10-22T13:34:11;1.73;;;1.23;;
20865;SDS011;10593;48.398;10.698;2022-10-22T13:36:43;1.10;;;1.00;;
20865;SDS011;10593;48.398;10.698;2022-10-22T13:39:13;0.70;;;0.67;;
20865;SDS011;10593;48.398;10.698;2022-10-22T13:41:49;3.63;;;1.30;;
20865;SDS011;10593;48.398;10.698;2022-10-22T13:44:16;4.37;;;1.40;;
20865;SDS011;10593;48.398;10.698;2022-10-22T13:46:43;1.83;;;1.07;;
20865;SDS011;10593;48.398;10.698;2022-10-22T13:49:15;1.47;;;0.80;;
20865;SDS011;10593;48.398;10.698;2022-10-22T13:51:47;1.07;;;0.70;;
20865;SDS011;10593;48.398;10.698;2022-10-22T13:54:15;1.07;;;0.77;;
20865;SDS011;10593;48.398;10.698;2022-10-22T13:56:46;0.70;;;0.70;;
20865;SDS011;10593;48.398;10.698;2022-10-22T13:59:12;1.70;;;0.93;;
20865;SDS011;10593;48.398;10.698;2022-10-22T14:01:38;1.70;;;0.90;;
20865;SDS011;10593;48.398;10.698;2022-10-22T14:04:04;1.00;;;0.70;;
20865;SDS011;10593;48.398;10.698;2022-10-22T14:06:35;1.13;;;0.70;;
20865;SDS011;10593;48.398;10.698;2022-10-22T14:09:05;0.43;;;0.43;;
20865;SDS011;10593;48.398;10.698;2022-10-22T14:11:37;2.17;;;0.50;;
20865;SDS011;10593;48.398;10.698;2022-10-22T14:14:03;0.93;;;0.80;;
20865;SDS011;10593;48.398;10.698;2022-10-22T14:16:32;2.40;;;0.90;;
20865;SDS011;10593;48.398;10.698;2022-10-22T14:18:59;0.70;;;0.60;;
20865;SDS011;10593;48.398;10.698;2022-10-22T14:21:27;0.77;;;0.70;;
20865;SDS011;10593;48.398;10.698;2022-10-22T14:23:58;4.77;;;1.00;;
20865;SDS011;10593;48.398;10.698;2022-10-22T14:26:25;1.13;;;0.77;;
20865;SDS011;10593;48.398;10.698;2022-10-22T14:28:57;0.63;;;0.63;;
20865;SDS011;10593;48.398;10.698;2022-10-22T14:31:24;2.20;;;0.77;;
20865;SDS011;10593;48.398;10.698;2022-10-22T14:33:50;0.83;;;0.60;;
20865;SDS011;10593;48.398;10.698;2022-10-22T14:36:17;2.00;;;0.90;;
20865;SDS011;10593;48.398;10.698;2022-10-22T14:38:44;0.47;;;0.47;;
20865;SDS011;10593;48.398;10.698;2022-10-22T14:41:22;0.70;;;0.60;;
20865;SDS011;10593;48.398;10.698;2022-10-22T14:43:49;0.50;;;0.50;;
20865;SDS011;10593;48.398;10.698;2022-10-22T14:46:17;1.00;;;0.70;;
20865;SDS011;10593;48.398;10.698;2022-10-22T14:48:43;0.60;;;0.60;;
20865;SDS011;10593;48.398;10.698;2022-10-22T14:51:10;0.87;;;0.57;;
20865;SDS011;10593;48.398;10.698;2022-10-22T14:53:39;0.97;;;0.60;;
20865;SDS011;10593;48.398;10.698;2022-10-22T14:56:05;1.27;;;0.60;;
20865;SDS011;10593;48.398;10.698;2022-10-22T14:58:35;0.83;;;0.50;;
20865;SDS011;10593;48.398;10.698;2022-10-22T15:01:01;0.73;;;0.50;;
20865;SDS011;10593;48.398;10.698;2022-10-22T15:03:28;0.63;;;0.63;;
20865;SDS011;10593;48.398;10.698;2022-10-22T15:05:54;2.13;;;1.33;;
20865;SDS011;10593;48.398;10.698;2022-10-22T15:08:20;1.93;;;0.90;;
20865;SDS011;10593;48.398;10.698;2022-10-22T15:10:57;1.00;;;1.00;;
20865;SDS011;10593;48.398;10.698;2022-10-22T15:13:41;0.93;;;0.83;;
20865;SDS011;10593;48.398;10.698;2022-10-22T15:16:08;0.67;;;0.67;;
20865;SDS011;10593;48.398;10.698;2022-10-22T15:18:35;3.20;;;0.77;;
20865;SDS011;10593;48.398;10.698;2022-10-22T15:21:03;1.00;;;0.77;;
20865;SDS011;10593;48.398;10.698;2022-10-22T15:23:32;0.70;;;0.70;;
20865;SDS011;10593;48.398;10.698;2022-10-22T15:26:00;1.63;;;0.70;;
20865;SDS011;10593;48.398;10.698;2022-10-22T15:28:26;1.97;;;0.87;;
20865;SDS011;10593;48.398;10.698;2022-10-22T15:30:55;1.30;;;1.10;;
20865;SDS011;10593;48.398;10.698;2022-10-22T15:33:23;2.00;;;0.83;;
20865;SDS011;10593;48.398;10.698;2022-10-22T15:35:50;1.30;;;1.20;;
20865;SDS011;10593;48.398;10.698;2022-10-22T15:38:16;1.30;;;0.90;;
20865;SDS011;10593;48.398;10.698;2022-10-22T15:40:42;1.07;;;0.90;;
20865;SDS011;10593;48.398;10.698;2022-10-22T15:43:08;1.80;;;0.83;;
20865;SDS011;10593;48.398;10.698;2022-10-22T15:45:34;0.90;;;0.63;;
20865;SDS011;10593;48.398;10.698;2022-10-22T15:48:00;2.57;;;1.00;;
20865;SDS011;10593;48.398;10.698;2022-10-22T15:50:25;1.27;;;1.07;;
20865;SDS011;10593;48.398;10.698;2022-10-22T15:52:51;3.90;;;0.90;;
20865;SDS011;10593;48.398;10.698;2022-10-22T15:55:18;1.30;;;0.90;;
20865;SDS011;10593;48.398;10.698;2022-10-22T15:57:44;1.20;;;1.03;;
20865;SDS011;10593;48.398;10.698;2022-10-22T16:00:10;1.50;;;0.87;;
20865;SDS011;10593;48.398;10.698;2022-10-22T16:02:36;1.53;;;0.93;;
20865;SDS011;10593;48.398;10.698;2022-10-22T16:05:01;0.83;;;0.70;;
20865;SDS011;10593;48.398;10.698;2022-10-22T16:07:29;2.53;;;0.87;;
20865;SDS011;10593;48.398;10.698;2022-10-22T16:09:57;0.60;;;0.60;;
20865;SDS011;10593;48.398;10.698;2022-10-22T16:12:24;1.60;;;0.90;;
20865;SDS011;10593;48.398;10.698;2022-10-22T16:14:50;2.17;;;0.70;;
20865;SDS011;10593;48.398;10.698;2022-10-22T16:17:16;2.13;;;1.20;;
20865;SDS011;10593;48.398;10.698;2022-10-22T16:19:42;1.23;;;0.83;;
20865;SDS011;10593;48.398;10.698;2022-10-22T16:22:08;1.87;;;0.90;;
20865;SDS011;10593;48.398;10.698;2022-10-22T16:24:35;0.80;;;0.80;;
20865;SDS011;10593;48.398;10.698;2022-10-22T16:27:05;1.37;;;0.80;;
20865;SDS011;10593;48.398;10.698;2022-10-22T16:29:32;1.47;;;0.90;;
20865;SDS011;10593;48.398;10.698;2022-10-22T16:31:58;2.80;;;1.57;;